Time;durP1;ratioP1;P1;durP2;ratioP2;P2;SDS_P1;SDS_P2;PMS_P1;PMS_P2;Temp;Humidity;BMP_temperature;BMP_pressure;BME280_temperature;BME280_humidity;BME280_pressure;Samples;Min_cycle;Max_cycle;Signal;HPM_P1;HPM_P2
2023/06/22 00:00:28;;;;;;;;;;;;;;;26.32;44.78;101146.65;103048;1295;60755;-81
2023/06/22 00:02:54;;;;;;;;;;;;;;;26.33;44.89;101145.01;102982;1291;60505;-81
2023/06/22 00:05:19;;;;;;;;;;;;;;;26.32;44.99;101144.02;102999;1291;60619;-82
2023/06/22 00:07:45;;;;;;;;;;;;;;;26.32;44.99;101141.09;102972;1291;60569;-82
2023/06/22 00:10:10;;;;;;;;;;;;;;;26.32;45.05;101147.20;102938;1291;60601;-81
2023/06/22 00:12:35;;;;;;;;;;;;;;;26.33;44.82;101144.50;103045;1295;60542;-81
2023/06/22 00:15:01;;;;;;;;;;;;;;;26.32;44.99;101147.40;103007;1291;60622;-82
2023/06/22 00:17:26;;;;;;;;;;;;;;;26.32;44.99;101143.41;102973;1291;60555;-82
2023/06/22 00:19:53;;;;;;;;;;;;;;;26.32;45.06;101144.72;103030;1291;60667;-82
2023/06/22 00:22:27;;;;;;;;;;;;;;;26.32;44.94;101144.88;102955;1291;60593;-81
2023/06/22 00:24:54;;;;;;;;;;;;;;;26.32;45.09;101143.09;102941;1291;61137;-81
2023/06/22 00:27:19;;;;;;;;;;;;;;;26.32;45.17;101136.96;103049;1291;60578;-81
2023/06/22 00:29:44;;;;;;;;;;;;;;;26.32;45.00;101137.89;102972;1291;61798;-81
2023/06/22 00:32:10;;;;;;;;;;;;;;;26.31;45.07;101138.62;103027;1296;60583;-81
2023/06/22 00:34:35;;;;;;;;;;;;;;;26.32;45.02;101136.09;103039;1296;60609;-81
2023/06/22 00:37:01;;;;;;;;;;;;;;;26.31;45.23;101135.95;102876;1291;60481;-81
2023/06/22 00:39:26;;;;;;;;;;;;;;;26.32;45.13;101132.67;102992;1291;60999;-82
2023/06/22 00:41:52;;;;;;;;;;;;;;;26.32;45.25;101134.84;102960;1291;60996;-81
2023/06/22 00:44:17;;;;;;;;;;;;;;;26.31;45.01;101133.43;102947;1291;60512;-81
2023/06/22 00:46:43;;;;;;;;;;;;;;;26.31;45.24;101129.14;102925;1293;60676;-81
2023/06/22 00:49:08;;;;;;;;;;;;;;;26.31;45.23;101124.60;103032;1295;60519;-82
2023/06/22 00:51:37;;;;;;;;;;;;;;;26.31;45.20;101123.71;103012;1291;60592;-81
2023/06/22 00:54:05;;;;;;;;;;;;;;;26.31;45.06;101122.81;102957;1296;64796;-81
2023/06/22 00:56:30;;;;;;;;;;;;;;;26.31;45.10;101120.84;103002;1291;64253;-82
2023/06/22 00:58:57;;;;;;;;;;;;;;;26.31;45.32;101121.92;102898;1294;60606;-82
2023/06/22 01:01:22;;;;;;;;;;;;;;;26.30;45.44;101118.70;102985;1291;61853;-81
2023/06/22 01:03:48;;;;;;;;;;;;;;;26.30;45.35;101120.88;103004;1291;60481;-81
2023/06/22 01:06:15;;;;;;;;;;;;;;;26.31;45.42;101117.96;102882;1291;60598;-82
2023/06/22 01:08:41;;;;;;;;;;;;;;;26.31;45.19;101121.38;103094;1296;60603;-81
2023/06/22 01:11:09;;;;;;;;;;;;;;;26.31;45.17;101120.30;102978;1291;60687;-81
2023/06/22 01:13:38;;;;;;;;;;;;;;;26.30;45.30;101124.29;102941;1296;60483;-82
2023/06/22 01:16:17;;;;;;;;;;;;;;;26.30;45.27;101123.23;102968;1293;65003;-82
2023/06/22 01:18:42;;;;;;;;;;;;;;;26.30;45.31;101124.48;103034;1291;60943;-82
2023/06/22 01:21:08;;;;;;;;;;;;;;;26.30;45.26;101124.66;102929;1291;61303;-82
2023/06/22 01:23:53;;;;;;;;;;;;;;;26.30;45.09;101122.73;103041;1291;60598;-82
2023/06/22 01:26:21;;;;;;;;;;;;;;;26.30;45.33;101122.36;102956;1291;65979;-83
2023/06/22 01:28:47;;;;;;;;;;;;;;;26.30;45.31;101123.66;103026;1293;60572;-82
2023/06/22 01:31:14;;;;;;;;;;;;;;;26.29;45.27;101126.00;102998;1291;60589;-82
2023/06/22 01:33:41;;;;;;;;;;;;;;;26.30;45.48;101127.26;102974;1297;63663;-82
2023/06/22 01:36:07;;;;;;;;;;;;;;;26.30;45.37;101131.59;102952;1291;66118;-82
2023/06/22 01:38:33;;;;;;;;;;;;;;;26.30;45.50;101140.77;102969;1296;60937;-82
2023/06/22 01:40:59;;;;;;;;;;;;;;;26.30;45.32;101141.13;103034;1291;60596;-82
2023/06/22 01:43:48;;;;;;;;;;;;;;;26.29;45.39;101138.81;102949;1296;60587;-82
2023/06/22 01:46:13;;;;;;;;;;;;;;;26.29;45.30;101134.85;102651;1297;65197;-82
2023/06/22 01:48:39;;;;;;;;;;;;;;;26.29;45.21;101131.23;102542;1295;60715;-82
2023/06/22 01:51:04;;;;;;;;;;;;;;;26.29;45.37;101136.34;102641;1296;61672;-82
2023/06/22 01:53:30;;;;;;;;;;;;;;;26.29;45.44;101140.32;102531;1295;60766;-82
2023/06/22 01:55:56;;;;;;;;;;;;;;;26.29;45.38;101141.90;102560;1295;60828;-82
2023/06/22 01:58:22;;;;;;;;;;;;;;;26.29;45.49;101138.14;102489;1296;64931;-82
2023/06/22 02:00:52;;;;;;;;;;;;;;;26.29;45.48;101139.55;102582;1300;60583;-81
2023/06/22 02:03:19;;;;;;;;;;;;;;;26.29;45.38;101145.71;102718;1295;60554;-81
2023/06/22 02:05:53;;;;;;;;;;;;;;;26.29;45.41;101146.27;102581;1295;63737;-81
2023/06/22 02:08:22;;;;;;;;;;;;;;;26.29;45.41;101143.95;102646;1299;64781;-80
2023/06/22 02:10:50;;;;;;;;;;;;;;;26.29;45.40;101146.41;102819;1295;60637;-82
2023/06/22 02:13:17;;;;;;;;;;;;;;;26.29;45.50;101146.45;102588;1295;60546;-82
2023/06/22 02:15:42;;;;;;;;;;;;;;;26.29;45.49;101150.06;102475;1295;61951;-82
2023/06/22 02:18:08;;;;;;;;;;;;;;;26.28;45.57;101152.45;102751;1300;61362;-83
2023/06/22 02:20:36;;;;;;;;;;;;;;;26.28;45.50;101152.81;102536;1300;60623;-83
2023/06/22 02:23:01;;;;;;;;;;;;;;;26.28;45.49;101159.86;102656;1300;60581;-82
2023/06/22 02:25:26;;;;;;;;;;;;;;;26.28;45.58;101161.98;102865;1296;60673;-82
2023/06/22 02:27:52;;;;;;;;;;;;;;;26.28;45.45;101164.73;103014;1291;60657;-81
2023/06/22 02:30:17;;;;;;;;;;;;;;;26.28;45.54;101167.64;102968;1291;60575;-81
2023/06/22 02:32:43;;;;;;;;;;;;;;;26.27;45.33;101172.39;102923;1291;60540;-81
2023/06/22 02:35:09;;;;;;;;;;;;;;;26.28;45.43;101181.54;102962;1296;60609;-81
2023/06/22 02:37:41;;;;;;;;;;;;;;;26.28;45.46;101185.13;102986;1295;60596;-81
2023/06/22 02:40:08;;;;;;;;;;;;;;;26.28;45.55;101188.04;102859;1291;65079;-81
2023/06/22 02:42:34;;;;;;;;;;;;;;;26.28;45.56;101189.49;103010;1291;60576;-81
2023/06/22 02:45:00;;;;;;;;;;;;;;;26.27;45.62;101190.06;103009;1296;60576;-81
2023/06/22 02:47:25;;;;;;;;;;;;;;;26.27;45.67;101191.34;102905;1296;60600;-82
2023/06/22 02:49:51;;;;;;;;;;;;;;;26.27;45.64;101188.80;103010;1293;60574;-82
2023/06/22 02:52:16;;;;;;;;;;;;;;;26.28;45.62;101186.61;102946;1297;60589;-82
2023/06/22 02:54:42;;;;;;;;;;;;;;;26.28;45.54;101189.31;103011;1291;60581;-82
2023/06/22 02:57:13;;;;;;;;;;;;;;;26.27;45.71;101192.59;102984;1291;60602;-82
2023/06/22 02:59:40;;;;;;;;;;;;;;;26.27;45.64;101191.31;102984;1291;64841;-82
2023/06/22 03:02:06;;;;;;;;;;;;;;;26.27;45.51;101188.27;102989;1291;65123;-82
2023/06/22 03:04:33;;;;;;;;;;;;;;;26.27;45.74;101186.27;103067;1295;60573;-82
2023/06/22 03:07:01;;;;;;;;;;;;;;;26.27;45.92;101185.21;103008;1291;60849;-81
2023/06/22 03:09:27;;;;;;;;;;;;;;;26.27;45.77;101189.35;102978;1296;63877;-81
2023/06/22 03:11:54;;;;;;;;;;;;;;;26.28;45.61;101191.11;103032;1291;65960;-82
2023/06/22 03:14:19;;;;;;;;;;;;;;;26.28;45.54;101191.48;103026;1291;61560;-82
2023/06/22 03:16:44;;;;;;;;;;;;;;;26.27;45.80;101190.77;102949;1291;60883;-82
2023/06/22 03:19:10;;;;;;;;;;;;;;;26.28;45.79;101184.98;102915;1291;60599;-82
2023/06/22 03:21:38;;;;;;;;;;;;;;;26.28;45.64;101184.44;103023;1295;61193;-82
2023/06/22 03:24:04;;;;;;;;;;;;;;;26.27;45.86;101183.56;103028;1291;65062;-82
2023/06/22 03:26:29;;;;;;;;;;;;;;;26.28;45.90;101173.42;102999;1291;60595;-82
2023/06/22 03:28:55;;;;;;;;;;;;;;;26.28;45.82;101172.52;103081;1296;60576;-82
2023/06/22 03:31:21;;;;;;;;;;;;;;;26.28;45.76;101176.48;102943;1296;61673;-82
2023/06/22 03:33:49;;;;;;;;;;;;;;;26.28;45.99;101178.12;103017;1295;60634;-82
2023/06/22 03:36:18;;;;;;;;;;;;;;;26.27;45.91;101172.19;102966;1294;60751;-82
2023/06/22 03:38:47;;;;;;;;;;;;;;;26.28;45.63;101172.70;102999;1292;60686;-82
2023/06/22 03:41:13;;;;;;;;;;;;;;;26.28;45.79;101171.05;103044;1292;64081;-81
2023/06/22 03:43:39;;;;;;;;;;;;;;;26.28;45.71;101171.42;102977;1293;60588;-81
2023/06/22 03:46:05;;;;;;;;;;;;;;;26.28;45.79;101173.76;103015;1291;60574;-81
2023/06/22 03:48:30;;;;;;;;;;;;;;;26.28;45.80;101180.77;103044;1295;60989;-81
2023/06/22 03:50:56;;;;;;;;;;;;;;;26.29;45.85;101179.86;102984;1295;60545;-81
2023/06/22 03:53:22;;;;;;;;;;;;;;;26.28;45.81;101183.64;102968;1304;60510;-81
2023/06/22 03:55:48;;;;;;;;;;;;;;;26.28;45.75;101183.50;103002;1291;65958;-81
2023/06/22 03:58:14;;;;;;;;;;;;;;;26.28;45.71;101185.29;103023;1291;60474;-81
2023/06/22 04:00:39;;;;;;;;;;;;;;;26.28;45.73;101186.55;102980;1296;60689;-81
2023/06/22 04:03:07;;;;;;;;;;;;;;;26.28;45.99;101180.63;103003;1295;60672;-81
2023/06/22 04:05:33;;;;;;;;;;;;;;;26.28;45.78;101174.50;102984;1295;61612;-81
2023/06/22 04:07:58;;;;;;;;;;;;;;;26.28;45.89;101174.70;102941;1295;61184;-81
2023/06/22 04:10:25;;;;;;;;;;;;;;;26.28;45.94;101178.11;103010;1294;60607;-81
2023/06/22 04:12:51;;;;;;;;;;;;;;;26.28;45.84;101180.42;102989;1297;60523;-81
2023/06/22 04:15:17;;;;;;;;;;;;;;;26.28;45.86;101179.17;103030;1294;61118;-81
2023/06/22 04:17:42;;;;;;;;;;;;;;;26.28;45.68;101181.14;103001;1290;60654;-81
2023/06/22 04:20:08;;;;;;;;;;;;;;;26.28;45.85;101182.59;103071;1295;60603;-81
2023/06/22 04:22:33;;;;;;;;;;;;;;;26.28;45.81;101186.89;102936;1294;60599;-81
2023/06/22 04:24:59;;;;;;;;;;;;;;;26.29;45.82;101189.91;103043;1294;62096;-81
2023/06/22 04:27:25;;;;;;;;;;;;;;;26.29;46.03;101193.36;103044;1295;60622;-81
2023/06/22 04:29:51;;;;;;;;;;;;;;;26.29;45.92;101192.62;103018;1289;61650;-82
2023/06/22 04:32:17;;;;;;;;;;;;;;;26.29;45.67;101194.42;103060;1294;60594;-82
2023/06/22 04:34:43;;;;;;;;;;;;;;;26.30;45.80;101195.46;103057;1293;60510;-82
2023/06/22 04:37:08;;;;;;;;;;;;;;;26.30;45.71;101198.64;103031;1295;74151;-82
2023/06/22 04:39:34;;;;;;;;;;;;;;;26.31;45.85;101201.13;102945;1291;60521;-82
2023/06/22 04:42:00;;;;;;;;;;;;;;;26.31;45.67;101202.20;103003;1290;60596;-81
2023/06/22 04:44:25;;;;;;;;;;;;;;;26.31;45.69;101204.91;103163;1295;60536;-81
2023/06/22 04:46:57;;;;;;;;;;;;;;;26.31;45.81;101205.03;102896;1293;60667;-81
2023/06/22 04:49:32;;;;;;;;;;;;;;;26.32;45.85;101207.70;102972;1291;64954;-81
2023/06/22 04:51:59;;;;;;;;;;;;;;;26.33;45.78;101205.66;102958;1294;60585;-81
2023/06/22 04:54:25;;;;;;;;;;;;;;;26.33;45.93;101205.58;103172;1292;60649;-81
2023/06/22 04:56:56;;;;;;;;;;;;;;;26.34;45.70;101208.41;103262;1304;60586;-82
2023/06/22 04:59:28;;;;;;;;;;;;;;;26.35;45.57;101208.36;103137;1295;64970;-82
2023/06/22 05:01:54;;;;;;;;;;;;;;;26.35;45.74;101208.47;103290;1291;60493;-81
2023/06/22 05:04:20;;;;;;;;;;;;;;;26.36;45.68;101207.13;103228;1295;60488;-82
2023/06/22 05:06:45;;;;;;;;;;;;;;;26.36;45.47;101208.73;103157;1295;60618;-82
2023/06/22 05:09:12;;;;;;;;;;;;;;;26.37;45.72;101213.34;103170;1296;61950;-82
2023/06/22 05:11:37;;;;;;;;;;;;;;;26.37;45.71;101210.27;103885;1292;60677;-82
2023/06/22 05:14:02;;;;;;;;;;;;;;;26.38;45.58;101206.40;103290;1295;60529;-82
2023/06/22 05:16:28;;;;;;;;;;;;;;;26.39;45.48;101206.48;103283;1295;60891;-82
2023/06/22 05:18:54;;;;;;;;;;;;;;;26.40;45.58;101205.70;103009;1295;61749;-82
2023/06/22 05:21:23;;;;;;;;;;;;;;;26.40;45.46;101201.36;103018;1295;60566;-82
2023/06/22 05:23:48;;;;;;;;;;;;;;;26.40;45.36;101199.18;103114;1296;60600;-81
2023/06/22 05:26:14;;;;;;;;;;;;;;;26.41;45.47;101204.16;103095;1297;61757;-81
2023/06/22 05:28:41;;;;;;;;;;;;;;;26.41;45.45;101203.45;103012;1296;60504;-81
2023/06/22 05:31:06;;;;;;;;;;;;;;;26.42;45.51;101205.20;103184;1302;60899;-81
2023/06/22 05:33:32;;;;;;;;;;;;;;;26.41;45.43;101208.09;103212;1295;60983;-81
2023/06/22 05:35:57;;;;;;;;;;;;;;;26.42;45.29;101208.27;103356;1289;60590;-82
2023/06/22 05:38:23;;;;;;;;;;;;;;;26.42;45.40;101206.08;103276;1289;60850;-82
2023/06/22 05:40:49;;;;;;;;;;;;;;;26.42;45.10;101206.59;103283;1293;60469;-81
2023/06/22 05:43:15;;;;;;;;;;;;;;;26.43;44.98;101209.98;103199;1297;60751;-81
2023/06/22 05:45:41;;;;;;;;;;;;;;;26.43;45.22;101209.95;103100;1295;60879;-82
2023/06/22 05:48:07;;;;;;;;;;;;;;;26.43;45.06;101207.45;103054;1290;60812;-82
2023/06/22 05:50:34;;;;;;;;;;;;;;;26.43;45.01;101212.44;103083;1295;61718;-82
2023/06/22 05:52:59;;;;;;;;;;;;;;;26.44;44.86;101216.34;103316;1294;60597;-81
2023/06/22 05:55:25;;;;;;;;;;;;;;;26.45;44.83;101221.20;103279;1290;61613;-82
2023/06/22 05:57:50;;;;;;;;;;;;;;;26.46;44.77;101223.59;103517;1293;61464;-82
2023/06/22 06:00:16;;;;;;;;;;;;;;;26.47;44.83;101224.10;103460;1289;60659;-82
2023/06/22 06:02:43;;;;;;;;;;;;;;;26.47;44.95;101221.69;103406;1293;73414;-80
2023/06/22 06:05:16;;;;;;;;;;;;;;;26.47;44.59;101229.27;103309;1296;61168;-81
2023/06/22 06:07:42;;;;;;;;;;;;;;;26.48;44.44;101227.76;103220;1296;60583;-81
2023/06/22 06:10:07;;;;;;;;;;;;;;;26.49;44.48;101227.31;103256;1294;60617;-81
2023/06/22 06:12:33;;;;;;;;;;;;;;;26.49;44.45;101226.95;103339;1295;60567;-81
2023/06/22 06:14:58;;;;;;;;;;;;;;;26.49;44.57;101228.73;103468;1297;61660;-82
2023/06/22 06:17:24;;;;;;;;;;;;;;;26.50;44.64;101234.50;103308;1292;60667;-81
2023/06/22 06:19:49;;;;;;;;;;;;;;;26.50;44.72;101231.25;103285;1291;60442;-82
2023/06/22 06:22:14;;;;;;;;;;;;;;;26.51;44.53;101232.76;103503;1295;60602;-82
2023/06/22 06:24:40;;;;;;;;;;;;;;;26.51;44.56;101234.21;103163;1293;60565;-82
2023/06/22 06:27:06;;;;;;;;;;;;;;;26.51;44.50;101231.84;103171;1292;60530;-82
2023/06/22 06:29:34;;;;;;;;;;;;;;;26.51;44.27;101231.65;103300;1295;60683;-82
2023/06/22 06:32:00;;;;;;;;;;;;;;;26.51;44.29;101232.73;103612;1294;60460;-82
2023/06/22 06:34:26;;;;;;;;;;;;;;;26.52;44.50;101226.85;103368;1291;60607;-82
2023/06/22 06:36:52;;;;;;;;;;;;;;;26.52;44.40;101224.50;103387;1292;60509;-82
2023/06/22 06:39:17;;;;;;;;;;;;;;;26.53;44.48;101223.16;103602;1295;60578;-82
2023/06/22 06:41:42;;;;;;;;;;;;;;;26.53;44.12;101222.58;103454;1291;61730;-82
2023/06/22 06:44:08;;;;;;;;;;;;;;;26.54;44.39;101224.32;103438;1290;60526;-82
2023/06/22 06:46:33;;;;;;;;;;;;;;;26.54;44.33;101216.56;103644;1294;60597;-82
2023/06/22 06:49:00;;;;;;;;;;;;;;;26.55;44.36;101221.55;103938;1289;60498;-82
2023/06/22 06:51:25;;;;;;;;;;;;;;;26.55;44.25;101220.42;103504;1290;60587;-82
2023/06/22 06:53:51;;;;;;;;;;;;;;;26.56;44.27;101228.48;103360;1291;60507;-82
2023/06/22 06:56:17;;;;;;;;;;;;;;;26.57;44.14;101227.86;103372;1291;61281;-82
2023/06/22 06:58:44;;;;;;;;;;;;;;;26.57;44.13;101223.36;103134;1295;62145;-82
2023/06/22 07:01:11;;;;;;;;;;;;;;;26.57;44.24;101218.96;103257;1293;60566;-82
2023/06/22 07:03:37;;;;;;;;;;;;;;;26.57;44.16;101212.84;103317;1289;60513;-82
2023/06/22 07:06:03;;;;;;;;;;;;;;;26.57;44.03;101217.58;103251;1290;60471;-82
2023/06/22 07:08:29;;;;;;;;;;;;;;;26.57;44.06;101224.02;102890;1290;623150;-82
2023/06/22 07:10:55;;;;;;;;;;;;;;;26.58;44.24;101224.85;103544;1289;60595;-82
2023/06/22 07:13:20;;;;;;;;;;;;;;;26.59;44.11;101220.61;103403;1291;65029;-82
2023/06/22 07:15:46;;;;;;;;;;;;;;;26.60;44.01;101218.21;103223;1292;60592;-82
2023/06/22 07:18:11;;;;;;;;;;;;;;;26.60;43.95;101222.73;103269;1289;62801;-82
2023/06/22 07:20:37;;;;;;;;;;;;;;;26.60;44.03;101221.96;103474;1294;60569;-82
2023/06/22 07:23:03;;;;;;;;;;;;;;;26.61;43.88;101225.91;103123;1290;60668;-82
2023/06/22 07:25:29;;;;;;;;;;;;;;;26.62;44.07;101220.06;103397;1293;65981;-82
2023/06/22 07:28:04;;;;;;;;;;;;;;;26.61;44.03;101220.09;105954;1290;60532;-83
2023/06/22 07:30:30;;;;;;;;;;;;;;;26.61;44.06;101220.82;103673;1291;60398;-82
2023/06/22 07:32:56;;;;;;;;;;;;;;;26.62;44.05;101221.81;104029;1296;60579;-82
2023/06/22 07:35:22;;;;;;;;;;;;;;;26.63;44.23;101221.74;104079;1294;60594;-82
2023/06/22 07:37:47;;;;;;;;;;;;;;;26.64;44.23;101223.70;104241;1291;60617;-83
2023/06/22 07:40:13;;;;;;;;;;;;;;;26.64;44.13;101223.51;104126;1291;60592;-82
2023/06/22 07:42:38;;;;;;;;;;;;;;;26.63;44.19;101218.48;104112;1294;60597;-82
2023/06/22 07:45:04;;;;;;;;;;;;;;;26.64;44.19;101212.99;104128;1295;59386;-82
2023/06/22 07:47:30;;;;;;;;;;;;;;;26.66;44.37;101204.39;103950;1292;60668;-82
2023/06/22 07:50:00;;;;;;;;;;;;;;;26.67;44.14;101206.95;103798;1296;62884;-82
2023/06/22 07:52:27;;;;;;;;;;;;;;;26.69;44.27;101205.20;103957;1296;60677;-83
2023/06/22 07:54:53;;;;;;;;;;;;;;;26.70;44.41;101200.91;104092;1292;59333;-82
2023/06/22 07:57:18;;;;;;;;;;;;;;;26.71;44.32;101200.83;104236;1293;60661;-82
2023/06/22 07:59:44;;;;;;;;;;;;;;;26.72;44.33;101201.10;104104;1293;60617;-82
2023/06/22 08:02:09;;;;;;;;;;;;;;;26.73;44.25;101201.38;104163;1292;60562;-82
2023/06/22 08:04:35;;;;;;;;;;;;;;;26.74;44.25;101204.34;104076;1294;59382;-81
2023/06/22 08:07:01;;;;;;;;;;;;;;;26.76;44.04;101202.59;104128;1295;60516;-81
2023/06/22 08:09:29;;;;;;;;;;;;;;;26.76;44.13;101203.11;103858;1293;60662;-81
2023/06/22 08:11:56;;;;;;;;;;;;;;;26.77;44.06;101208.42;104035;1292;60934;-81
2023/06/22 08:14:23;;;;;;;;;;;;;;;26.78;44.30;101205.64;103974;1294;60676;-81
2023/06/22 08:16:48;;;;;;;;;;;;;;;26.78;44.32;101205.81;103437;1295;60674;-81
2023/06/22 08:19:14;;;;;;;;;;;;;;;26.79;44.30;101207.57;103349;1296;60976;-81
2023/06/22 08:21:39;;;;;;;;;;;;;;;26.79;44.32;101206.12;103748;1291;60600;-81
2023/06/22 08:24:05;;;;;;;;;;;;;;;26.80;44.22;101206.79;103806;1291;60615;-81
2023/06/22 08:26:31;;;;;;;;;;;;;;;26.80;44.03;101208.23;103333;1290;60597;-81
2023/06/22 08:28:56;;;;;;;;;;;;;;;26.80;44.19;101209.82;103449;1290;64730;-81
2023/06/22 08:31:22;;;;;;;;;;;;;;;26.79;44.12;101206.09;103713;1289;60529;-82
2023/06/22 08:33:47;;;;;;;;;;;;;;;26.80;43.89;101210.56;103909;1291;60624;-82
2023/06/22 08:36:13;;;;;;;;;;;;;;;26.80;43.94;101213.09;103882;1291;61271;-82
2023/06/22 08:38:39;;;;;;;;;;;;;;;26.80;43.87;101215.95;103449;1293;60572;-82
2023/06/22 08:41:04;;;;;;;;;;;;;;;26.80;44.10;101213.95;103365;1291;64982;-81
2023/06/22 08:43:33;;;;;;;;;;;;;;;26.80;44.05;101217.41;103365;1289;65772;-81
2023/06/22 08:45:58;;;;;;;;;;;;;;;26.80;44.03;101217.44;103359;1291;60602;-81
2023/06/22 08:48:24;;;;;;;;;;;;;;;26.80;44.09;101215.98;103321;1289;60511;-81
2023/06/22 08:50:49;;;;;;;;;;;;;;;26.79;44.02;101210.44;103173;1292;60618;-81
2023/06/22 08:53:15;;;;;;;;;;;;;;;26.79;44.21;101208.46;103385;1288;60529;-81
2023/06/22 08:55:41;;;;;;;;;;;;;;;26.79;44.01;101204.15;103646;1291;60519;-81
2023/06/22 08:58:06;;;;;;;;;;;;;;;26.79;44.10;101204.52;103621;1291;60587;-82
2023/06/22 09:00:34;;;;;;;;;;;;;;;26.78;43.97;101204.01;103360;1290;60543;-81
2023/06/22 09:03:01;;;;;;;;;;;;;;;26.78;44.21;101203.84;103359;1296;64927;-81
2023/06/22 09:05:27;;;;;;;;;;;;;;;26.78;44.06;101205.80;103379;1291;65802;-81
2023/06/22 09:07:56;;;;;;;;;;;;;;;26.78;44.10;101205.10;103524;1291;60568;-81
2023/06/22 09:10:21;;;;;;;;;;;;;;;26.78;44.13;101203.83;103493;1291;60469;-82
2023/06/22 09:12:47;;;;;;;;;;;;;;;26.78;44.23;101202.95;103385;1290;60591;-82
2023/06/22 09:15:12;;;;;;;;;;;;;;;26.78;44.36;101199.13;103429;1291;60511;-82
2023/06/22 09:17:38;;;;;;;;;;;;;;;26.78;44.04;101201.33;103706;1293;60604;-82
2023/06/22 09:20:05;;;;;;;;;;;;;;;26.78;43.91;101200.95;103282;1289;60489;-82
2023/06/22 09:22:32;;;;;;;;;;;;;;;26.78;44.13;101203.30;103374;1294;60591;-82
2023/06/22 09:24:58;;;;;;;;;;;;;;;26.79;44.25;101201.84;103261;1290;60544;-82
2023/06/22 09:27:23;;;;;;;;;;;;;;;26.78;44.17;101199.18;103374;1289;60923;-82
2023/06/22 09:29:49;;;;;;;;;;;;;;;26.79;44.13;101198.56;103563;1291;60421;-82
2023/06/22 09:32:15;;;;;;;;;;;;;;;26.78;43.90;101190.52;103514;1295;60600;-82
2023/06/22 09:34:40;;;;;;;;;;;;;;;26.77;43.99;101189.83;103452;1291;61725;-82
2023/06/22 09:37:06;;;;;;;;;;;;;;;26.77;43.95;101190.58;103436;1291;60581;-82
2023/06/22 09:39:32;;;;;;;;;;;;;;;26.77;43.85;101188.02;103348;1294;60679;-82
2023/06/22 09:41:58;;;;;;;;;;;;;;;26.77;43.93;101188.92;103438;1295;60499;-82
2023/06/22 09:44:24;;;;;;;;;;;;;;;26.78;43.90;101185.63;103572;1289;60594;-82
2023/06/22 09:46:50;;;;;;;;;;;;;;;26.78;43.87;101183.81;103476;1293;61632;-81
2023/06/22 09:49:15;;;;;;;;;;;;;;;26.78;44.11;101183.82;103479;1291;64997;-82
2023/06/22 09:51:41;;;;;;;;;;;;;;;26.79;44.03;101180.52;103696;1289;60473;-82
2023/06/22 09:54:06;;;;;;;;;;;;;;;26.79;43.87;101180.88;103364;1291;60603;-82
2023/06/22 09:56:32;;;;;;;;;;;;;;;26.79;43.88;101178.13;103109;1291;60722;-82
2023/06/22 09:58:57;;;;;;;;;;;;;;;26.79;43.86;101172.91;103319;1291;60616;-82
2023/06/22 10:01:23;;;;;;;;;;;;;;;26.78;43.89;101172.41;103288;1294;60567;-82
2023/06/22 10:03:49;;;;;;;;;;;;;;;26.78;43.90;101174.92;103272;1291;60689;-82
2023/06/22 10:06:15;;;;;;;;;;;;;;;26.79;43.72;101168.96;103604;1291;60565;-82
2023/06/22 10:08:40;;;;;;;;;;;;;;;26.79;43.80;101169.69;103309;1292;60597;-81
2023/06/22 10:11:06;;;;;;;;;;;;;;;26.77;43.99;101168.70;103542;1291;60641;-81
2023/06/22 10:13:31;;;;;;;;;;;;;;;26.78;43.91;101171.91;103776;1291;60472;-81
2023/06/22 10:15:57;;;;;;;;;;;;;;;26.78;43.83;101172.04;103452;1289;61519;-81
2023/06/22 10:18:23;;;;;;;;;;;;;;;26.78;44.06;101169.90;103205;1289;60532;-81
2023/06/22 10:20:52;;;;;;;;;;;;;;;26.78;43.90;101168.64;103379;1293;60557;-81
2023/06/22 10:23:18;;;;;;;;;;;;;;;26.78;43.85;101164.66;103384;1289;74020;-82
2023/06/22 10:25:44;;;;;;;;;;;;;;;26.78;44.00;101164.88;105082;1289;59372;-82
2023/06/22 10:28:09;;;;;;;;;;;;;;;26.79;43.83;101164.09;103552;1294;60585;-82
2023/06/22 10:30:35;;;;;;;;;;;;;;;26.79;43.82;101160.10;103284;1289;60584;-81
2023/06/22 10:33:00;;;;;;;;;;;;;;;26.79;43.96;101158.86;103595;1291;60645;-82
2023/06/22 10:35:26;;;;;;;;;;;;;;;26.79;43.84;101158.25;103457;1293;64993;-81
2023/06/22 10:37:52;;;;;;;;;;;;;;;26.79;43.87;101153.18;103127;1291;60643;-81
2023/06/22 10:40:18;;;;;;;;;;;;;;;26.79;43.99;101145.45;103228;1292;60596;-81
2023/06/22 10:42:50;;;;;;;;;;;;;;;26.79;43.96;101140.23;103373;1291;64839;-81
2023/06/22 10:45:15;;;;;;;;;;;;;;;26.78;43.92;101136.65;103112;1291;66130;-82
2023/06/22 10:47:42;;;;;;;;;;;;;;;26.78;43.96;101133.23;103106;1292;60624;-82
2023/06/22 10:50:07;;;;;;;;;;;;;;;26.78;43.85;101130.54;103190;1290;60601;-82
2023/06/22 10:52:33;;;;;;;;;;;;;;;26.78;43.91;101126.91;103060;1291;61782;-82
2023/06/22 10:54:58;;;;;;;;;;;;;;;26.78;44.03;101129.29;103159;1290;60584;-81
2023/06/22 10:57:23;;;;;;;;;;;;;;;26.78;43.98;101119.21;103303;1289;60619;-81
2023/06/22 10:59:49;;;;;;;;;;;;;;;26.78;43.83;101122.06;103310;1291;60522;-81
2023/06/22 11:02:14;;;;;;;;;;;;;;;26.77;43.89;101121.98;103203;1291;60611;-81
2023/06/22 11:04:41;;;;;;;;;;;;;;;26.76;44.09;101120.02;103382;1289;60683;-81
2023/06/22 11:07:06;;;;;;;;;;;;;;;26.76;43.85;101116.25;103243;1291;60592;-81
2023/06/22 11:09:32;;;;;;;;;;;;;;;26.75;43.82;101108.55;103176;1291;60593;-81
2023/06/22 11:11:58;;;;;;;;;;;;;;;26.75;43.89;101110.56;103175;1291;60584;-81
2023/06/22 11:14:24;;;;;;;;;;;;;;;26.75;43.78;101109.66;103376;1290;60508;-82
2023/06/22 11:16:50;;;;;;;;;;;;;;;26.74;43.98;101110.79;103346;1291;60665;-81
2023/06/22 11:19:15;;;;;;;;;;;;;;;26.75;43.99;101113.48;103655;1289;60641;-82
2023/06/22 11:21:41;;;;;;;;;;;;;;;26.75;43.86;101113.27;103508;1291;60600;-81
2023/06/22 11:24:07;;;;;;;;;;;;;;;26.75;43.98;101107.30;103297;1292;60463;-82
2023/06/22 11:26:32;;;;;;;;;;;;;;;26.75;43.94;101105.86;103353;1291;61095;-82
2023/06/22 11:28:58;;;;;;;;;;;;;;;26.75;43.85;101105.84;103181;1290;63888;-82
2023/06/22 11:31:24;;;;;;;;;;;;;;;26.75;43.98;101108.37;103084;1291;60583;-82
2023/06/22 11:33:49;;;;;;;;;;;;;;;26.76;44.05;101106.92;103143;1295;61696;-82
2023/06/22 11:36:15;;;;;;;;;;;;;;;26.76;43.80;101105.45;103238;1289;61296;-82
2023/06/22 11:38:41;;;;;;;;;;;;;;;26.75;43.89;101106.56;103349;1289;60538;-82
2023/06/22 11:41:07;;;;;;;;;;;;;;;26.75;43.91;101107.29;103456;1294;61000;-82
2023/06/22 11:43:33;;;;;;;;;;;;;;;26.75;44.10;101103.70;103420;1288;64837;-82
2023/06/22 11:45:58;;;;;;;;;;;;;;;26.75;44.08;101104.23;103609;1289;60588;-82
2023/06/22 11:48:24;;;;;;;;;;;;;;;26.75;43.90;101104.77;103206;1288;60591;-82
2023/06/22 11:50:49;;;;;;;;;;;;;;;26.75;43.99;101102.79;103290;1289;60635;-82
2023/06/22 11:53:16;;;;;;;;;;;;;;;26.75;43.92;101104.21;103156;1289;60669;-82
2023/06/22 11:55:43;;;;;;;;;;;;;;;26.75;43.65;101101.16;103141;1291;66027;-82
2023/06/22 11:58:08;;;;;;;;;;;;;;;26.75;43.76;101098.45;103074;1292;60526;-82
2023/06/22 12:00:34;;;;;;;;;;;;;;;26.75;44.14;101100.44;103228;1289;60857;-82
2023/06/22 12:03:00;;;;;;;;;;;;;;;26.75;43.91;101100.10;103132;1291;60591;-83
2023/06/22 12:05:25;;;;;;;;;;;;;;;26.74;43.85;101098.70;103098;1292;60660;-82
2023/06/22 12:07:53;;;;;;;;;;;;;;;26.74;43.89;101093.50;103248;1291;60621;-81
2023/06/22 12:10:18;;;;;;;;;;;;;;;26.74;43.89;101092.79;103181;1291;60879;-82
2023/06/22 12:12:44;;;;;;;;;;;;;;;26.74;44.04;101087.74;103187;1289;60730;-82
2023/06/22 12:15:09;;;;;;;;;;;;;;;26.74;44.11;101087.95;103283;1289;62247;-82
2023/06/22 12:17:35;;;;;;;;;;;;;;;26.74;43.91;101090.83;103139;1291;61079;-82
2023/06/22 12:20:01;;;;;;;;;;;;;;;26.73;44.10;101087.59;103285;1288;60576;-81